Flight Track Log - Related Links

Times and Time Zones

All times are in EDT time to prevent confusion due to time zone crossing. See the LBQ792 flight status page for this flight to view local times or setup timezone preferences in your user account.

Time Position Orientation Groundspeed Altitude Reporting Facility
EDT Latitude Longitude Course Direction KTS MPH feet Rate Location/Type
Tue 09:55:28 PM 43.1383 -76.1508 306° West 144 166 1,800  Level Boston Center
Tue 09:56:29 PM 43.1403 -76.2136 272° West 185 213 3,000 1,328 Climbing Boston Center
Tue 09:57:30 PM 43.1381 -76.2844 268° West 189 217 4,500 1,370 Climbing Boston Center
Tue 09:58:36 PM 43.1356 -76.3556 267° West 182 209 5,900 744 Climbing Boston Center
Tue 09:59:31 PM 43.1369 -76.4325 271° West 228 262 6,000 52 Climbing Boston Center
Tue 10:00:31 PM 43.1358 -76.5264 269° West 249 287 6,000  Level Boston Center
Tue 10:01:32 PM 43.1347 -76.6175 269° West 245 282 6,000  Level Boston Center
Tue 10:02:11 PM 43.1322 -76.6797 267° West 253 291 6,000  Level Cleveland Center
Tue 10:02:29 PM 43.1328 -76.6967 273° West 251 289 6,000  Level Cleveland Center
Tue 10:03:30 PM 43.1319 -76.8022 269° West 247 284 6,000  Level Cleveland Center
Tue 10:04:30 PM 43.1289 -76.8961 267° West 245 282 6,000  Level Cleveland Center
Tue 10:05:31 PM 43.1297 -76.9872 271° West 243 280 6,000  Level Cleveland Center
Tue 10:06:32 PM 43.1283 -77.0814 269° West 244 281 6,000 -248 Level Cleveland Center
Tue 10:07:32 PM 43.1250 -77.1811 267° West 245 282 5,500 -893 Descending Cleveland Center
Tue 10:08:33 PM 43.1239 -77.2836 269° West 259 298 4,200 -738 Descending Cleveland Center
Tue 10:09:34 PM 43.1222 -77.3747 269° West 241 277 4,000 -248 Descending Cleveland Center
Tue 10:10:34 PM 43.1206 -77.4631 269° West 238 274 3,700 -645 Descending Cleveland Center
Tue 10:11:35 PM 43.1144 -77.5514 265° West 242 278 2,700 -744 Descending Cleveland Center
Tue 10:12:35 PM 43.1019 -77.6289 258° West 184 212 2,200 -595 Descending Cleveland Center
Tue 10:13:36 PM 43.0972 -77.6889 264° West 138 159 1,500 -689 Descending Cleveland Center
Tue 10:15:00 PM 43.1167 -77.6667 20° North  Level FlightAware Approximate
Tue 10:22:00 PM 43.1191 -77.6719 20° North  Level Estimated

Login

Don't have an account? Register now (free) for customized features, flight alerts, and more!